createdAt,value
2023-02-03T00:02:10.295Z,9.50
2023-02-03T00:04:37.380Z,8.25
2023-02-03T00:07:04.592Z,7.63
2023-02-03T00:09:31.703Z,9.40
2023-02-03T00:11:58.698Z,8.48
2023-02-03T00:14:25.624Z,10.07
2023-02-03T00:16:52.533Z,6.65
2023-02-03T00:19:19.684Z,7.57
2023-02-03T00:21:46.725Z,8.20
2023-02-03T00:24:13.826Z,9.45
2023-02-03T00:26:43.840Z,9.05
2023-02-03T00:29:11.430Z,15.73
2023-02-03T00:31:38.959Z,8.98
2023-02-03T00:34:06.609Z,9.25
2023-02-03T00:36:33.650Z,8.45
2023-02-03T00:39:01.614Z,9.90
2023-02-03T00:41:31.514Z,10.52
2023-02-03T00:43:59.212Z,8.23
2023-02-03T00:46:26.398Z,7.47
2023-02-03T00:48:53.473Z,9.45
2023-02-03T00:51:21.435Z,8.85
2023-02-03T00:53:49.396Z,10.43
2023-02-03T00:56:16.437Z,12.48
2023-02-03T00:58:44.720Z,17.38
2023-02-03T01:01:12.154Z,11.95
2023-02-03T01:03:39.667Z,15.63
2023-02-03T01:06:19.963Z,14.30
2023-02-03T01:08:48.414Z,13.20
2023-02-03T01:11:19.990Z,13.35
2023-02-03T01:13:48.991Z,8.95
2023-02-03T01:16:19.000Z,12.07
2023-02-03T01:18:46.846Z,17.70
2023-02-03T01:21:18.216Z,11.30
2023-02-03T01:23:45.675Z,15.40
2023-02-03T01:26:18.127Z,11.95
2023-02-03T01:28:53.912Z,13.25
2023-02-03T01:31:25.358Z,13.30
2023-02-03T01:33:55.085Z,14.07
2023-02-03T01:36:25.827Z,11.93
2023-02-03T01:38:54.214Z,13.80
2023-02-03T01:41:25.448Z,10.57
2023-02-03T01:43:57.891Z,17.42
2023-02-03T01:46:39.469Z,13.18
2023-02-03T01:49:25.177Z,12.18
2023-02-03T01:51:53.392Z,11.00
2023-02-03T01:54:35.058Z,15.48
2023-02-03T01:57:07.602Z,12.40
2023-02-03T01:59:35.717Z,11.60
2023-02-03T02:02:05.149Z,12.48
2023-02-03T02:05:01.339Z,11.85
2023-02-03T02:07:29.170Z,15.00
2023-02-03T02:09:56.853Z,11.70
2023-02-03T02:12:23.872Z,11.93
2023-02-03T02:14:51.154Z,8.13
2023-02-03T02:17:35.539Z,6.95
2023-02-03T02:20:33.357Z,9.73
2023-02-03T02:23:31.907Z,9.73
2023-02-03T02:26:51.198Z,9.02
2023-02-03T02:29:55.772Z,10.38
2023-02-03T02:33:28.682Z,10.60
2023-02-03T02:36:24.959Z,10.25
2023-02-03T02:39:15.356Z,7.65
2023-02-03T02:42:02.442Z,10.25
2023-02-03T02:44:40.778Z,8.25
2023-02-03T02:47:19.258Z,8.40
2023-02-03T02:49:52.953Z,4.78
2023-02-03T02:52:22.553Z,8.65
2023-02-03T02:54:55.193Z,5.88
2023-02-03T02:57:26.883Z,6.80
2023-02-03T02:59:54.850Z,6.80
2023-02-03T03:02:22.033Z,5.57
2023-02-03T03:04:51.172Z,4.60
2023-02-03T03:07:27.816Z,5.18
2023-02-03T03:10:01.493Z,3.97
2023-02-03T03:12:38.314Z,4.90
2023-02-03T03:15:11.359Z,5.57
2023-02-03T03:17:45.133Z,4.15
2023-02-03T03:20:20.011Z,3.88
2023-02-03T03:23:04.433Z,3.60
2023-02-03T03:25:39.829Z,13.65
2023-02-03T03:28:18.420Z,3.03
2023-02-03T03:30:45.706Z,7.15
2023-02-03T03:33:12.812Z,3.95
2023-02-03T03:35:55.717Z,3.88
2023-02-03T03:38:39.487Z,4.25
2023-02-03T03:41:15.816Z,5.93
2023-02-03T03:46:18.152Z,2.75
2023-02-03T03:48:57.172Z,3.22
2023-02-03T03:52:04.394Z,3.30
2023-02-03T03:54:33.411Z,2.22
2023-02-03T03:57:30.049Z,2.25
2023-02-03T03:59:59.070Z,4.38
2023-02-03T04:02:27.933Z,4.57
2023-02-03T04:04:56.861Z,1.77
2023-02-03T04:07:23.979Z,9.05
2023-02-03T04:09:51.344Z,2.35
2023-02-03T04:12:24.880Z,2.67
2023-02-03T04:14:51.891Z,2.65
2023-02-03T04:17:20.102Z,2.22
2023-02-03T04:19:48.622Z,1.48
2023-02-03T04:22:15.676Z,2.10
2023-02-03T04:24:42.672Z,1.67
2023-02-03T04:27:09.716Z,2.53
2023-02-03T04:29:36.788Z,2.08
2023-02-03T04:32:04.046Z,3.75
2023-02-03T04:34:31.202Z,2.65
2023-02-03T04:36:58.083Z,2.65
2023-02-03T04:39:25.019Z,2.03
2023-02-03T04:41:52.007Z,3.35
2023-02-03T04:44:18.869Z,3.47
2023-02-03T04:46:45.888Z,3.10
2023-02-03T04:49:12.767Z,4.53
2023-02-03T04:51:39.904Z,6.90
2023-02-03T04:54:06.949Z,5.10
2023-02-03T04:56:33.951Z,8.90
2023-02-03T04:59:00.810Z,8.68
2023-02-03T05:01:27.971Z,8.68
2023-02-03T05:03:54.893Z,6.55
2023-02-03T05:06:28.808Z,10.18
2023-02-03T05:08:55.997Z,8.77
2023-02-03T05:11:23.321Z,7.68
2023-02-03T05:13:50.658Z,8.55
2023-02-03T05:16:17.758Z,9.02
2023-02-03T05:18:44.666Z,8.30
2023-02-03T05:21:11.797Z,9.25
2023-02-03T05:23:38.825Z,10.25
2023-02-03T05:26:05.790Z,9.07
2023-02-03T05:28:32.734Z,11.63
2023-02-03T05:31:03.250Z,10.82
2023-02-03T05:33:30.765Z,13.43
2023-02-03T05:35:57.644Z,14.38
2023-02-03T05:38:28.242Z,16.52
2023-02-03T05:41:13.559Z,14.88
2023-02-03T05:43:40.591Z,14.98
2023-02-03T05:46:08.029Z,17.10
2023-02-03T05:48:35.460Z,16.55
2023-02-03T05:51:02.430Z,16.50
2023-02-03T05:53:29.468Z,21.08
2023-02-03T05:55:56.275Z,21.42
2023-02-03T05:58:23.536Z,20.33
2023-02-03T06:00:50.370Z,21.92
2023-02-03T06:03:17.446Z,21.52
2023-02-03T06:05:44.891Z,21.90
2023-02-03T06:08:11.999Z,26.17
2023-02-03T06:10:38.931Z,22.70
2023-02-03T06:13:16.064Z,21.77
2023-02-03T06:15:43.673Z,24.80
2023-02-03T06:18:10.942Z,22.73
2023-02-03T06:20:37.815Z,20.50
2023-02-03T06:23:04.715Z,19.80
2023-02-03T06:25:32.678Z,24.25
2023-02-03T06:28:00.174Z,23.50
2023-02-03T06:30:27.595Z,23.60
2023-02-03T06:32:55.136Z,23.02
2023-02-03T06:35:21.977Z,23.55
2023-02-03T06:37:48.795Z,25.42
2023-02-03T06:40:15.797Z,20.20
2023-02-03T06:42:47.104Z,23.48
2023-02-03T06:45:15.154Z,24.60
2023-02-03T06:47:43.901Z,24.58
2023-02-03T06:50:14.736Z,24.83
2023-02-03T06:52:42.018Z,22.25
2023-02-03T06:55:09.413Z,22.20
2023-02-03T06:57:36.501Z,22.50
2023-02-03T07:00:04.272Z,22.25
2023-02-03T07:02:31.260Z,20.95
2023-02-03T07:04:58.103Z,21.38
2023-02-03T07:07:25.218Z,21.27
2023-02-03T07:09:52.283Z,20.55
2023-02-03T07:12:19.431Z,19.80
2023-02-03T07:14:46.277Z,24.38
2023-02-03T07:17:13.335Z,19.63
2023-02-03T07:19:40.300Z,25.60
2023-02-03T07:22:07.369Z,16.60
2023-02-03T07:24:34.237Z,18.25
2023-02-03T07:27:03.445Z,18.55
2023-02-03T07:29:31.677Z,19.77
2023-02-03T07:31:59.109Z,21.00
2023-02-03T07:34:26.172Z,22.05
2023-02-03T07:36:53.033Z,17.65
2023-02-03T07:39:20.010Z,19.67
2023-02-03T07:41:46.916Z,25.58
2023-02-03T07:44:14.038Z,21.42
2023-02-03T07:46:44.711Z,17.55
2023-02-03T07:49:12.754Z,18.25
2023-02-03T07:51:39.804Z,13.52
2023-02-03T07:54:06.851Z,15.88
2023-02-03T07:56:34.037Z,16.83
2023-02-03T07:59:01.019Z,13.65
2023-02-03T08:01:28.293Z,16.55
2023-02-03T08:03:55.485Z,15.63
2023-02-03T08:06:22.991Z,17.13
2023-02-03T08:08:49.917Z,13.93
2023-02-03T08:11:16.851Z,12.95
2023-02-03T08:13:43.844Z,12.45
2023-02-03T08:16:10.761Z,14.80
2023-02-03T08:18:37.685Z,10.93
2023-02-03T08:21:05.028Z,9.07
2023-02-03T08:23:31.953Z,10.10
2023-02-03T08:26:24.436Z,7.85
2023-02-03T08:28:51.838Z,9.93
2023-02-03T08:31:18.995Z,12.52
2023-02-03T08:33:46.668Z,7.93
2023-02-03T08:36:13.603Z,8.65
2023-02-03T08:38:41.827Z,12.55
2023-02-03T08:41:11.628Z,9.77
2023-02-03T08:43:39.022Z,10.35
2023-02-03T08:46:08.019Z,6.22
2023-02-03T08:48:35.299Z,9.85
2023-02-03T08:51:02.461Z,7.63
2023-02-03T08:53:29.372Z,9.38
2023-02-03T08:55:56.466Z,6.57
2023-02-03T08:58:23.564Z,6.70
2023-02-03T09:00:53.262Z,6.65
2023-02-03T09:03:20.268Z,7.65
2023-02-03T09:05:47.203Z,13.07
2023-02-03T09:08:14.133Z,6.35
2023-02-03T09:10:41.221Z,7.10
2023-02-03T09:13:08.063Z,7.75
2023-02-03T09:15:35.036Z,4.20
2023-02-03T09:18:02.064Z,6.85
2023-02-03T09:20:29.359Z,6.70
2023-02-03T09:22:59.677Z,7.57
2023-02-03T09:25:26.679Z,6.53
2023-02-03T09:27:53.947Z,5.70
2023-02-03T09:30:20.978Z,9.10
2023-02-03T09:32:54.093Z,4.90
2023-02-03T09:35:21.403Z,4.93
2023-02-03T09:37:48.868Z,5.47
2023-02-03T09:40:28.792Z,4.90
2023-02-03T09:43:30.998Z,7.25
2023-02-03T09:46:11.285Z,4.13
2023-02-03T09:48:44.689Z,4.55
2023-02-03T09:51:24.692Z,3.92
2023-02-03T09:54:06.262Z,8.50
2023-02-03T09:56:36.422Z,3.53
2023-02-03T09:59:03.986Z,3.75
2023-02-03T10:01:56.727Z,2.83
2023-02-03T10:04:27.733Z,6.03
2023-02-03T10:07:29.327Z,3.35
2023-02-03T10:10:20.962Z,3.97
2023-02-03T10:12:58.296Z,3.42
2023-02-03T10:15:39.420Z,3.30
2023-02-03T10:18:14.731Z,4.18
2023-02-03T10:20:47.658Z,4.50
2023-02-03T10:23:40.727Z,4.97
2023-02-03T10:26:16.089Z,3.03
2023-02-03T10:28:55.073Z,5.45
2023-02-03T10:31:27.803Z,4.55
2023-02-03T10:34:11.681Z,3.50
2023-02-03T10:36:50.822Z,2.92
2023-02-03T10:39:42.047Z,6.85
2023-02-03T10:42:11.551Z,4.35
2023-02-03T10:44:43.311Z,4.13
2023-02-03T10:47:35.023Z,2.75
2023-02-03T10:50:35.024Z,6.15
2023-02-03T10:53:21.180Z,8.73
2023-02-03T10:56:11.222Z,4.47
2023-02-03T10:58:40.501Z,5.03
2023-02-03T11:01:16.597Z,5.20
2023-02-03T11:04:06.295Z,7.85
2023-02-03T11:06:36.285Z,6.82
2023-02-03T11:09:30.016Z,10.43
2023-02-03T11:12:26.275Z,10.07
2023-02-03T11:14:54.008Z,11.40
2023-02-03T11:17:30.143Z,12.43
2023-02-03T11:20:14.456Z,8.50
2023-02-03T11:22:44.118Z,9.98
2023-02-03T11:25:29.421Z,11.23
2023-02-03T11:27:57.017Z,10.95
2023-02-03T11:30:30.086Z,14.30
2023-02-03T11:33:00.811Z,13.55
2023-02-03T11:35:31.681Z,13.75
2023-02-03T11:38:01.333Z,13.20
2023-02-03T11:40:30.990Z,14.50
2023-02-03T11:42:58.058Z,20.67
2023-02-03T11:45:42.019Z,15.95
2023-02-03T11:48:25.125Z,11.60
2023-02-03T11:51:05.117Z,16.05
2023-02-03T11:54:02.668Z,21.55
2023-02-03T11:59:21.335Z,18.70
2023-02-03T12:02:32.046Z,14.57
2023-02-03T12:05:45.892Z,19.95
2023-02-03T12:08:32.651Z,30.08
2023-02-03T12:11:24.088Z,23.63
2023-02-03T12:14:06.579Z,22.50
2023-02-03T12:17:09.687Z,26.88
2023-02-03T12:20:01.767Z,28.10
2023-02-03T12:23:15.069Z,29.25
2023-02-03T12:26:22.595Z,35.97
2023-02-03T12:29:13.828Z,34.78
2023-02-03T12:31:46.521Z,25.65
2023-02-03T12:34:19.518Z,24.65
2023-02-03T12:36:58.554Z,32.63
2023-02-03T12:39:34.915Z,22.38
2023-02-03T12:42:29.661Z,35.38
2023-02-03T12:45:06.558Z,39.63
2023-02-03T12:47:51.065Z,31.98
2023-02-03T12:50:27.755Z,30.25
2023-02-03T12:53:11.319Z,32.75
2023-02-03T12:55:46.451Z,28.98
2023-02-03T12:58:28.569Z,26.42
2023-02-03T13:01:03.898Z,27.38
2023-02-03T13:03:48.587Z,16.25
2023-02-03T13:06:48.468Z,6.63
2023-02-03T13:09:27.403Z,7.30
2023-02-03T13:12:43.217Z,11.23
2023-02-03T13:15:21.274Z,11.75
2023-02-03T13:18:29.541Z,10.43
2023-02-03T13:20:57.312Z,10.45
2023-02-03T13:23:25.152Z,11.05
2023-02-03T13:26:11.032Z,13.15
2023-02-03T13:28:59.925Z,12.25
2023-02-03T13:32:19.499Z,12.30
2023-02-03T13:35:32.323Z,15.35
2023-02-03T13:38:15.167Z,12.52
2023-02-03T13:41:06.459Z,17.38
2023-02-03T13:43:39.432Z,21.55
2023-02-03T13:46:21.590Z,23.33
2023-02-03T13:48:48.836Z,21.67
2023-02-03T13:51:24.087Z,20.60
2023-02-03T13:53:59.777Z,32.75
2023-02-03T13:56:28.755Z,32.08
2023-02-03T13:59:19.975Z,31.15
2023-02-03T14:01:47.405Z,32.72
2023-02-03T14:04:28.250Z,37.70
2023-02-03T14:07:02.244Z,34.17
2023-02-03T14:09:34.140Z,37.67
2023-02-03T14:12:16.353Z,36.90
2023-02-03T14:14:51.420Z,38.75
2023-02-03T14:17:42.723Z,28.33
2023-02-03T14:20:28.038Z,29.48
2023-02-03T14:23:15.375Z,32.17
2023-02-03T14:25:58.779Z,29.08
2023-02-03T14:28:47.028Z,25.30
2023-02-03T14:31:25.339Z,30.10
2023-02-03T14:34:09.366Z,33.78
2023-02-03T14:36:54.644Z,27.88
2023-02-03T14:39:55.829Z,33.83
2023-02-03T14:43:10.244Z,22.70
2023-02-03T14:46:12.515Z,23.60
2023-02-03T14:49:18.203Z,32.50
2023-02-03T14:52:14.169Z,31.02
2023-02-03T14:55:03.796Z,24.38
2023-02-03T14:57:56.789Z,24.42
2023-02-03T15:00:31.979Z,27.63
2023-02-03T15:03:11.503Z,39.90
2023-02-03T15:05:48.152Z,32.80
2023-02-03T15:08:44.970Z,27.23
2023-02-03T15:11:44.364Z,29.85
2023-02-03T15:14:31.400Z,31.40
2023-02-03T15:16:59.656Z,32.28
2023-02-03T15:19:38.427Z,29.92
2023-02-03T15:22:30.504Z,28.00
2023-02-03T15:25:04.682Z,23.35
2023-02-03T15:27:32.788Z,29.45
2023-02-03T15:30:26.997Z,25.27
2023-02-03T15:33:13.276Z,27.02
2023-02-03T15:35:42.590Z,31.10
2023-02-03T15:38:20.881Z,23.55
2023-02-03T15:40:54.605Z,28.90
2023-02-03T15:43:45.485Z,24.10
2023-02-03T15:46:31.712Z,18.27
2023-02-03T15:49:25.694Z,28.60
2023-02-03T15:51:59.303Z,23.92
2023-02-03T15:54:46.112Z,26.42
2023-02-03T15:57:24.300Z,20.05
2023-02-03T16:00:00.040Z,19.30
2023-02-03T16:02:36.001Z,25.98
2023-02-03T16:05:39.888Z,29.92
2023-02-03T16:08:46.595Z,20.60
2023-02-03T16:11:32.907Z,24.63
2023-02-03T16:14:07.052Z,25.67
2023-02-03T16:17:03.826Z,24.45
2023-02-03T16:19:34.441Z,23.70
2023-02-03T16:22:01.503Z,22.83
2023-02-03T16:24:45.988Z,22.58
2023-02-03T16:27:33.927Z,20.85
2023-02-03T16:30:25.744Z,18.10
2023-02-03T16:33:38.029Z,25.75
2023-02-03T16:36:32.820Z,22.58
2023-02-03T16:39:29.356Z,24.42
2023-02-03T16:42:18.784Z,21.08
2023-02-03T16:45:04.575Z,27.42
2023-02-03T16:47:50.990Z,21.65
2023-02-03T16:50:40.095Z,20.23
2023-02-03T16:53:17.259Z,22.35
2023-02-03T16:55:44.599Z,20.25
2023-02-03T16:58:12.583Z,23.15
2023-02-03T17:00:42.463Z,25.17
2023-02-03T17:03:20.139Z,27.73
2023-02-03T17:05:48.009Z,29.58
2023-02-03T17:08:17.590Z,20.90
2023-02-03T17:10:46.225Z,28.40
2023-02-03T17:13:13.857Z,26.35
2023-02-03T17:15:47.553Z,19.17
2023-02-03T17:18:15.709Z,25.38
2023-02-03T17:20:44.318Z,29.23
2023-02-03T17:23:12.306Z,24.02
2023-02-03T17:25:40.190Z,21.52
2023-02-03T17:28:09.021Z,20.17
2023-02-03T17:30:36.672Z,22.52
2023-02-03T17:33:12.062Z,24.67
2023-02-03T17:35:44.576Z,27.67
2023-02-03T17:38:14.569Z,20.92
2023-02-03T17:54:35.341Z,29.98
2023-02-03T17:57:02.266Z,22.92
2023-02-03T17:59:29.347Z,23.65
2023-02-03T18:01:56.225Z,20.92
2023-02-03T18:04:23.234Z,29.52
2023-02-03T18:06:50.280Z,23.23
2023-02-03T18:09:17.492Z,20.15
2023-02-03T18:11:45.745Z,25.65
2023-02-03T18:14:14.310Z,21.73
2023-02-03T18:16:42.078Z,21.35
2023-02-03T18:19:14.365Z,17.02
2023-02-03T18:21:42.973Z,23.83
2023-02-03T18:24:13.012Z,19.88
2023-02-03T18:26:49.263Z,22.10
2023-02-03T18:29:18.660Z,22.85
2023-02-03T18:31:46.758Z,22.88
2023-02-03T18:34:16.265Z,24.20
2023-02-03T18:36:43.873Z,23.73
2023-02-03T18:39:12.653Z,30.70
2023-02-03T18:41:40.034Z,19.33
2023-02-03T18:44:07.129Z,22.55
2023-02-03T18:46:34.170Z,18.85
2023-02-03T18:49:01.302Z,22.90
2023-02-03T18:51:28.557Z,13.98
2023-02-03T18:53:59.966Z,17.02
2023-02-03T18:56:38.352Z,26.75
2023-02-03T18:59:08.702Z,21.77
2023-02-03T19:01:36.842Z,13.90
2023-02-03T19:04:04.287Z,22.42
2023-02-03T19:06:33.321Z,22.92
2023-02-03T19:09:01.336Z,19.10
2023-02-03T19:11:28.507Z,20.75
2023-02-03T19:13:55.455Z,22.33
2023-02-03T19:16:22.431Z,18.15
2023-02-03T19:18:49.450Z,12.75
2023-02-03T19:21:17.590Z,17.85
2023-02-03T19:23:44.727Z,14.10
2023-02-03T19:26:12.125Z,16.63
2023-02-03T19:28:40.489Z,16.48
2023-02-03T19:31:11.306Z,16.35
2023-02-03T19:33:38.698Z,20.02
2023-02-03T19:36:07.101Z,16.77
2023-02-03T19:38:34.647Z,10.38
2023-02-03T19:41:02.443Z,12.05
2023-02-03T19:43:31.374Z,15.52
2023-02-03T19:45:59.128Z,8.73
2023-02-03T19:48:26.134Z,9.23
2023-02-03T19:50:54.180Z,9.32
2023-02-03T19:53:21.624Z,11.02
2023-02-03T19:55:48.623Z,13.23
2023-02-03T19:58:16.356Z,6.82
2023-02-03T20:00:43.896Z,9.45
2023-02-03T20:03:11.006Z,11.43
2023-02-03T20:05:38.437Z,8.75
2023-02-03T20:08:06.199Z,13.05
2023-02-03T20:10:33.690Z,8.00
2023-02-03T20:13:00.950Z,16.73
2023-02-03T20:15:28.192Z,9.57
2023-02-03T20:17:55.849Z,8.35
2023-02-03T20:20:23.250Z,9.30
2023-02-03T20:22:50.227Z,10.93
2023-02-03T20:25:17.466Z,10.88
2023-02-03T20:27:45.432Z,10.55
2023-02-03T20:30:13.196Z,8.13
2023-02-03T20:32:40.346Z,10.93
2023-02-03T20:35:08.627Z,5.82
2023-02-03T20:37:36.324Z,9.40
2023-02-03T20:40:13.461Z,8.45
2023-02-03T20:42:40.993Z,8.63
2023-02-03T20:45:17.413Z,8.02
2023-02-03T20:50:19.293Z,4.75
2023-02-03T20:52:50.611Z,4.78
2023-02-03T20:55:23.490Z,6.25
2023-02-03T20:57:51.488Z,7.00
2023-02-03T21:00:23.101Z,4.85
2023-02-03T21:03:11.021Z,6.20
2023-02-03T21:05:42.156Z,13.35
2023-02-03T21:08:20.171Z,6.68
2023-02-03T21:10:49.167Z,6.15
2023-02-03T21:13:26.871Z,5.28
2023-02-03T21:16:00.022Z,7.80
2023-02-03T21:18:48.666Z,5.53
2023-02-03T21:21:25.096Z,3.80
2023-02-03T21:23:53.825Z,3.35
2023-02-03T21:26:25.643Z,1.65
2023-02-03T21:28:58.737Z,2.15
2023-02-03T21:31:35.634Z,1.98
2023-02-03T21:34:16.820Z,2.42
2023-02-03T21:36:45.330Z,2.53
2023-02-03T21:39:27.932Z,1.15
2023-02-03T21:41:56.533Z,2.72
2023-02-03T21:44:44.495Z,0.90
2023-02-03T21:47:18.717Z,0.80
2023-02-03T21:49:45.808Z,2.30
2023-02-03T21:52:16.045Z,0.95
2023-02-03T21:54:44.530Z,4.13
2023-02-03T21:57:16.265Z,4.30
2023-02-03T21:59:47.173Z,3.05
2023-02-03T22:02:57.518Z,3.30
2023-02-03T22:05:24.780Z,0.47
2023-02-03T22:07:51.627Z,1.02
2023-02-03T22:10:18.643Z,2.53
2023-02-03T22:12:45.679Z,0.82
2023-02-03T22:15:12.670Z,0.60
2023-02-03T22:17:39.742Z,0.43
2023-02-03T22:20:31.682Z,1.00
2023-02-03T22:22:58.830Z,2.83
2023-02-03T22:25:25.902Z,1.02
2023-02-03T22:27:53.171Z,0.95
2023-02-03T22:30:20.554Z,2.15
2023-02-03T22:32:47.469Z,2.13
2023-02-03T22:35:14.524Z,1.63
2023-02-03T22:37:41.616Z,9.98
2023-02-03T22:40:10.105Z,2.38
2023-02-03T22:42:37.226Z,3.55
2023-02-03T22:45:05.160Z,2.92
2023-02-03T22:47:32.171Z,1.13
2023-02-03T22:49:59.356Z,1.48
2023-02-03T22:52:26.430Z,1.60
2023-02-03T22:54:53.512Z,1.67
2023-02-03T22:57:20.464Z,2.47
2023-02-03T22:59:47.473Z,2.30
2023-02-03T23:02:14.495Z,2.78
2023-02-03T23:04:41.536Z,1.77
2023-02-03T23:07:08.509Z,1.42
2023-02-03T23:09:35.620Z,0.93
2023-02-03T23:12:02.442Z,0.80
2023-02-03T23:14:29.452Z,2.80
2023-02-03T23:16:56.636Z,3.28
2023-02-03T23:19:24.872Z,1.42
2023-02-03T23:21:51.690Z,1.70
2023-02-03T23:24:18.825Z,1.60
2023-02-03T23:26:45.785Z,1.40
2023-02-03T23:29:12.885Z,1.55
2023-02-03T23:31:39.986Z,1.83
2023-02-03T23:34:25.782Z,2.42
2023-02-03T23:36:52.803Z,2.22
2023-02-03T23:39:19.972Z,2.85
2023-02-03T23:41:47.978Z,1.83
2023-02-03T23:44:15.050Z,3.05
2023-02-03T23:46:41.990Z,1.55
2023-02-03T23:49:08.837Z,1.50
2023-02-03T23:51:35.819Z,1.13
2023-02-03T23:54:02.700Z,2.03
2023-02-03T23:56:29.865Z,4.07
2023-02-03T23:58:56.852Z,3.55
